Time;durP1;ratioP1;P1;durP2;ratioP2;P2;SDS_P1;SDS_P2;PMS_P1;PMS_P2;Temp;Humidity;BMP_temperature;BMP_pressure;BME280_temperature;BME280_humidity;BME280_pressure;Samples;Min_cycle;Max_cycle;Signal;HPM_P1;HPM_P2
2022/08/23 00:02:07;;;;;;;41.02;5.50;;;;;;;21.94;48.22;100575.48;1719787;82;21162;-42
2022/08/23 00:04:41;;;;;;;35.58;5.03;;;;;;;21.92;48.24;100578.70;1719669;82;21030;-42
2022/08/23 00:07:11;;;;;;;32.88;4.92;;;;;;;21.90;48.54;100580.09;1719868;82;20963;-41
2022/08/23 00:09:38;;;;;;;51.58;6.08;;;;;;;21.87;48.91;100578.16;1719897;82;21596;-41
2022/08/23 00:12:14;;;;;;;50.98;5.35;;;;;;;21.81;48.70;100578.90;1719854;82;21031;-41
2022/08/23 00:14:46;;;;;;;54.13;5.10;;;;;;;21.76;49.09;100583.62;1720084;82;21448;-42
2022/08/23 00:17:13;;;;;;;56.70;6.17;;;;;;;21.72;49.37;100579.49;1719975;82;20972;-42
2022/08/23 00:19:41;;;;;;;41.33;4.92;;;;;;;21.66;49.56;100576.77;1724565;82;21509;-42
2022/08/23 00:22:08;;;;;;;43.78;5.10;;;;;;;21.61;49.32;100578.83;1747826;82;21482;-41
2022/08/23 00:24:37;;;;;;;41.13;5.37;;;;;;;21.58;49.75;100579.48;1747753;82;21425;-43
2022/08/23 00:27:09;;;;;;;44.73;5.08;;;;;;;21.53;49.87;100580.62;1747662;82;21784;-43
2022/08/23 00:29:41;;;;;;;50.98;5.40;;;;;;;21.49;50.13;100579.13;1747907;82;20944;-42
2022/08/23 00:32:12;;;;;;;60.67;5.78;;;;;;;21.42;50.75;100592.30;1747613;81;20980;-43
2022/08/23 00:34:39;;;;;;;41.13;5.45;;;;;;;21.33;50.69;100584.95;1718796;83;20936;-42
2022/08/23 00:37:07;;;;;;;55.60;6.55;;;;;;;21.25;51.03;100587.60;1723327;82;21438;-42
2022/08/23 00:39:36;;;;;;;67.35;6.10;;;;;;;21.18;51.18;100587.61;1719950;82;22095;-42
2022/08/23 00:47:45;;;;;;;51.30;6.03;;;;;;;21.05;51.61;100593.23;1726003;82;20165;-42
2022/08/23 00:50:39;;;;;;;55.10;5.70;;;;;;;21.01;51.55;100599.62;1741011;82;20969;-42
2022/08/23 00:53:19;;;;;;;63.20;6.35;;;;;;;21.00;51.20;100597.47;1733899;82;21274;-42
2022/08/23 00:55:49;;;;;;;57.08;5.58;;;;;;;21.03;51.33;100597.73;1733590;82;20999;-42
2022/08/23 00:58:18;;;;;;;83.62;8.70;;;;;;;21.06;51.87;100594.92;1733574;82;21007;-42
2022/08/23 01:00:48;;;;;;;76.33;7.25;;;;;;;21.07;52.48;100597.92;1733873;82;21476;-42
2022/08/23 01:03:16;;;;;;;73.95;6.75;;;;;;;21.02;55.35;100592.10;1733703;81;20960;-42
2022/08/23 01:05:48;;;;;;;64.75;7.35;;;;;;;20.88;55.97;100608.27;1733788;81;21312;-42
2022/08/23 01:08:16;;;;;;;66.72;8.85;;;;;;;20.72;56.68;100600.86;1723109;82;21027;-42
2022/08/23 01:10:48;;;;;;;64.97;7.17;;;;;;;20.57;56.09;100606.06;1733723;82;20968;-42
2022/08/23 01:13:30;;;;;;;68.70;8.03;;;;;;;20.50;56.18;100604.73;1733963;82;20909;-43
2022/08/23 01:16:04;;;;;;;79.30;6.72;;;;;;;20.46;56.42;100605.86;1733605;82;21059;-42
2022/08/23 01:18:31;;;;;;;72.90;6.95;;;;;;;20.44;55.16;100607.73;1733610;82;21330;-44
2022/08/23 01:21:12;;;;;;;69.25;7.87;;;;;;;20.45;55.52;100610.25;1733606;82;20933;-43
2022/08/23 01:23:58;;;;;;;85.70;9.10;;;;;;;20.47;55.04;100612.36;1733598;81;20897;-42
2022/08/23 01:26:25;;;;;;;86.50;8.63;;;;;;;20.53;54.93;100618.56;1706269;82;20958;-42
2022/08/23 01:28:53;;;;;;;78.15;8.23;;;;;;;20.60;54.25;100617.75;1706364;82;21047;-42
2022/08/23 01:31:21;;;;;;;73.47;7.47;;;;;;;20.62;54.78;100615.02;1706392;82;21159;-42
2022/08/23 01:33:53;;;;;;;82.70;8.33;;;;;;;20.58;54.45;100619.59;1706305;82;20909;-42
2022/08/23 01:36:20;;;;;;;72.62;8.08;;;;;;;20.59;54.42;100613.87;1706863;82;21521;-42
2022/08/23 01:38:49;;;;;;;92.53;8.90;;;;;;;20.59;54.85;100620.00;1733848;82;20933;-42
2022/08/23 01:41:16;;;;;;;70.52;8.83;;;;;;;20.56;54.42;100621.46;1730812;82;21533;-42
2022/08/23 01:43:43;;;;;;;67.20;6.87;;;;;;;20.53;54.35;100625.59;1706349;82;21255;-43
2022/08/23 01:46:16;;;;;;;74.12;8.93;;;;;;;20.50;54.64;100631.03;1706066;82;21432;-42
2022/08/23 01:48:45;;;;;;;69.40;7.72;;;;;;;20.48;53.83;100625.02;1705550;84;21506;-43
2022/08/23 01:51:15;;;;;;;76.35;7.97;;;;;;;20.49;53.97;100628.02;1721932;82;21510;-43
2022/08/23 01:53:43;;;;;;;83.52;7.62;;;;;;;20.50;53.95;100625.77;1684896;82;21579;-42
2022/08/23 01:56:10;;;;;;;91.70;8.13;;;;;;;20.49;54.07;100631.97;1713949;82;21845;-42
2022/08/23 01:58:37;;;;;;;113.77;9.08;;;;;;;20.45;53.90;100630.45;1721355;82;21024;-42
2022/08/23 02:01:05;;;;;;;74.30;8.00;;;;;;;20.44;53.92;100632.22;1743026;82;20984;-42
2022/08/23 02:03:33;;;;;;;64.50;6.47;;;;;;;20.42;54.03;100634.57;1741160;82;20968;-42
2022/08/23 02:06:01;;;;;;;68.25;6.95;;;;;;;20.38;53.60;100636.06;1743719;82;20987;-42
2022/08/23 02:11:17;;;;;;;77.75;7.95;;;;;;;20.37;54.07;100639.63;1713877;83;26567;-42
2022/08/23 02:13:46;;;;;;;66.50;7.20;;;;;;;20.36;54.22;100639.25;1714127;83;21007;-42
2022/08/23 02:16:30;;;;;;;89.03;8.33;;;;;;;20.39;53.99;100637.77;1713866;82;20944;-42
2022/08/23 02:18:57;;;;;;;86.78;9.20;;;;;;;20.44;53.59;100645.84;1723868;82;20980;-42
2022/08/23 02:21:25;;;;;;;73.22;9.10;;;;;;;20.48;53.61;100640.78;1743433;81;21841;-42
2022/08/23 02:23:52;;;;;;;74.37;7.47;;;;;;;20.50;53.76;100646.80;1743571;82;21003;-42
2022/08/23 02:26:20;;;;;;;83.87;9.00;;;;;;;20.53;53.44;100642.68;1743524;82;20936;-42
2022/08/23 02:28:52;;;;;;;83.10;7.47;;;;;;;20.56;53.14;100638.55;1735983;82;20979;-42
2022/08/23 02:31:20;;;;;;;68.15;7.80;;;;;;;20.60;53.58;100641.41;1714042;83;20996;-42
2022/08/23 02:33:47;;;;;;;72.50;7.00;;;;;;;20.61;53.71;100642.23;1713939;83;21252;-42
2022/08/23 02:36:15;;;;;;;83.82;8.53;;;;;;;20.61;53.08;100643.55;1685502;83;20932;-42
2022/08/23 02:38:43;;;;;;;71.70;7.12;;;;;;;20.61;53.39;100654.08;1719824;82;21015;-42
2022/08/23 02:41:11;;;;;;;80.45;8.13;;;;;;;20.60;53.13;100653.24;1743430;82;20964;-42
2022/08/23 02:43:37;;;;;;;73.85;8.03;;;;;;;20.59;53.22;100662.06;1743554;82;20972;-42
2022/08/23 02:46:05;;;;;;;82.72;9.58;;;;;;;20.58;52.48;100662.97;1743457;82;21185;-42
2022/08/23 02:48:34;;;;;;;90.07;7.37;;;;;;;20.61;52.79;100665.45;1710660;82;20996;-42
2022/08/23 02:51:06;;;;;;;64.12;7.22;;;;;;;20.60;53.22;100666.39;1709548;83;20988;-42
2022/08/23 02:53:33;;;;;;;79.12;7.87;;;;;;;20.60;52.75;100667.70;1685982;84;21231;-42
2022/08/23 02:56:00;;;;;;;76.45;7.70;;;;;;;20.58;53.19;100670.03;1706041;84;20988;-42
2022/08/23 02:58:28;;;;;;;75.78;8.00;;;;;;;20.54;53.01;100660.14;1707976;82;21256;-42
2022/08/23 03:00:55;;;;;;;61.70;6.55;;;;;;;20.54;52.67;100666.72;1735185;82;21004;-42
2022/08/23 03:03:22;;;;;;;69.80;9.13;;;;;;;20.57;52.36;100673.59;1701106;83;20944;-42
2022/08/23 03:05:49;;;;;;;62.80;6.92;;;;;;;20.57;52.71;100681.48;1695798;83;20975;-42
2022/08/23 03:08:19;;;;;;;79.15;6.78;;;;;;;20.58;52.84;100678.75;1691121;83;22560;-42
2022/08/23 03:10:49;;;;;;;72.55;7.53;;;;;;;20.56;53.12;100687.20;1691033;84;22086;-42
2022/08/23 03:13:16;;;;;;;63.75;6.87;;;;;;;20.52;53.45;100690.48;1710262;82;21526;-42
2022/08/23 03:15:44;;;;;;;84.07;8.95;;;;;;;20.49;54.10;100690.66;1714529;82;20985;-42
2022/08/23 03:18:11;;;;;;;54.65;8.05;;;;;;;20.46;53.85;100702.67;1714113;82;21009;-42
2022/08/23 03:20:40;;;;;;;68.02;7.83;;;;;;;20.45;54.36;100706.69;1735092;81;22037;-42
2022/08/23 03:23:09;;;;;;;68.90;7.70;;;;;;;20.42;54.18;100708.17;1733109;82;21235;-42
2022/08/23 03:25:36;;;;;;;72.78;7.42;;;;;;;20.44;54.08;100711.56;1735177;82;21502;-42
2022/08/23 03:28:11;;;;;;;74.37;9.13;;;;;;;20.43;54.60;100709.87;1734538;82;20920;-42
2022/08/23 03:30:40;;;;;;;77.87;8.33;;;;;;;20.41;54.45;100707.80;1734809;82;20914;-42
2022/08/23 03:33:07;;;;;;;66.65;7.35;;;;;;;20.40;55.00;100713.50;1724197;82;21019;-42
2022/08/23 03:35:34;;;;;;;56.70;6.80;;;;;;;20.37;54.81;100717.17;1706785;82;22218;-43
2022/08/23 03:38:02;;;;;;;53.92;6.50;;;;;;;20.36;55.48;100716.80;1706251;81;20985;-43
2022/08/23 03:40:29;;;;;;;63.70;7.28;;;;;;;20.34;55.61;100725.68;1705849;82;21550;-42
2022/08/23 03:42:56;;;;;;;67.25;7.75;;;;;;;20.34;55.00;100729.17;1689097;83;21023;-42
2022/08/23 03:45:25;;;;;;;79.53;8.23;;;;;;;20.36;55.54;100728.63;1705944;84;21493;-42
2022/08/23 03:47:51;;;;;;;78.52;9.18;;;;;;;20.36;55.08;100733.02;1705702;84;22123;-42
2022/08/23 03:50:19;;;;;;;66.55;8.70;;;;;;;20.36;55.40;100733.88;1706709;83;20945;-42
2022/08/23 03:52:46;;;;;;;67.25;8.40;;;;;;;20.36;55.54;100739.13;1670533;83;21537;-42
2022/08/23 03:55:14;;;;;;;50.05;7.83;;;;;;;20.36;55.15;100736.50;1719177;82;20999;-42
2022/08/23 03:57:42;;;;;;;69.65;8.38;;;;;;;20.36;55.46;100736.50;1719314;82;21525;-42
2022/08/23 04:00:11;;;;;;;58.60;8.65;;;;;;;20.38;55.56;100742.52;1719137;82;21403;-42
2022/08/23 04:02:40;;;;;;;66.57;8.18;;;;;;;20.39;56.43;100745.53;1721718;82;20940;-43
2022/08/23 04:05:09;;;;;;;64.65;8.53;;;;;;;20.38;56.41;100746.47;1719216;82;21038;-42
2022/08/23 04:07:38;;;;;;;67.25;8.08;;;;;;;20.41;56.28;100749.86;1717610;83;20983;-42
2022/08/23 04:10:08;;;;;;;67.00;8.43;;;;;;;20.44;56.15;100746.56;1719394;83;20984;-43
2022/08/23 04:12:36;;;;;;;66.70;7.92;;;;;;;20.51;56.17;100745.77;1694842;81;21137;-42
2022/08/23 04:15:07;;;;;;;84.37;8.48;;;;;;;20.61;55.60;100752.23;1685092;83;21584;-42
2022/08/23 04:17:36;;;;;;;63.08;8.38;;;;;;;20.73;55.36;100749.83;1719256;83;20948;-43
2022/08/23 04:20:04;;;;;;;50.55;7.42;;;;;;;20.85;56.57;100754.44;1719389;83;21079;-43
2022/08/23 04:22:33;;;;;;;59.55;7.80;;;;;;;20.95;55.38;100759.54;1720362;82;21532;-42
2022/08/23 04:25:01;;;;;;;65.60;7.78;;;;;;;21.10;55.21;100763.55;1723239;82;21823;-43
2022/08/23 04:27:29;;;;;;;81.82;8.10;;;;;;;21.24;55.70;100771.47;1724196;82;21004;-42
2022/08/23 04:29:55;;;;;;;64.27;7.65;;;;;;;21.38;53.96;100768.51;1747061;82;20964;-42
2022/08/23 04:32:24;;;;;;;50.40;6.83;;;;;;;21.48;53.83;100764.38;1748993;82;20963;-43
2022/08/23 04:34:52;;;;;;;78.35;8.33;;;;;;;21.57;53.61;100773.52;1749166;82;20983;-42
2022/08/23 04:37:20;;;;;;;45.17;6.78;;;;;;;21.68;52.53;100779.49;1729996;82;21289;-43
2022/08/23 04:42:34;;;;;;;51.25;7.22;;;;;;;21.83;54.56;100775.08;1720709;82;20968;-42
2022/08/23 04:45:01;;;;;;;59.73;7.10;;;;;;;21.95;54.17;100784.02;1719130;83;21557;-43
2022/08/23 04:47:29;;;;;;;61.00;8.33;;;;;;;22.06;53.17;100776.28;1719229;82;20948;-43
2022/08/23 04:49:58;;;;;;;57.08;6.90;;;;;;;22.17;53.38;100773.47;1719295;83;21318;-43
2022/08/23 04:52:25;;;;;;;65.65;7.17;;;;;;;22.24;53.70;100777.41;1710130;82;21495;-43
2022/08/23 04:54:52;;;;;;;64.77;8.10;;;;;;;22.30;52.56;100781.45;1685411;84;21023;-43
2022/08/23 04:57:21;;;;;;;53.33;7.25;;;;;;;22.35;52.13;100780.69;1699999;84;21049;-43
2022/08/23 04:59:48;;;;;;;60.63;6.17;;;;;;;22.41;51.73;100781.61;1705846;84;20988;-42
2022/08/23 05:02:16;;;;;;;53.60;6.62;;;;;;;22.54;52.47;100790.94;1688581;83;21202;-43
2022/08/23 05:04:43;;;;;;;62.67;7.75;;;;;;;22.62;51.95;100785.18;1710872;82;21001;-43
2022/08/23 05:07:10;;;;;;;54.93;7.30;;;;;;;22.70;52.51;100787.33;1644381;87;21046;-43
2022/08/23 05:09:37;;;;;;;48.95;6.75;;;;;;;22.79;51.91;100786.27;1705764;84;21530;-43
2022/08/23 05:12:05;;;;;;;53.70;7.50;;;;;;;22.88;51.36;100787.47;1705866;84;20901;-43
2022/08/23 05:14:33;;;;;;;63.87;6.83;;;;;;;23.01;51.02;100796.74;1705706;83;22080;-43
2022/08/23 05:17:01;;;;;;;52.10;6.85;;;;;;;23.08;49.41;100788.78;1725160;82;20936;-43
2022/08/23 05:19:29;;;;;;;47.30;6.92;;;;;;;23.15;48.91;100794.51;1735162;82;20961;-43
2022/08/23 05:21:56;;;;;;;39.18;6.20;;;;;;;23.20;50.23;100795.05;1735192;82;21497;-43
2022/08/23 05:24:24;;;;;;;59.70;8.15;;;;;;;23.24;50.99;100785.96;1732840;82;21000;-43
2022/08/23 05:26:51;;;;;;;53.35;7.62;;;;;;;23.29;49.42;100795.40;1735084;82;21269;-42
2022/08/23 05:29:20;;;;;;;57.27;7.17;;;;;;;23.32;50.62;100790.77;1735168;82;20992;-43
2022/08/23 05:31:48;;;;;;;51.83;7.17;;;;;;;23.37;49.45;100793.11;1733162;81;21011;-42
2022/08/23 05:34:16;;;;;;;47.08;7.00;;;;;;;23.38;48.96;100801.41;1710226;82;21584;-43
2022/08/23 05:36:51;;;;;;;45.12;6.50;;;;;;;23.36;50.10;100796.67;1705837;83;20924;-42
2022/08/23 05:39:19;;;;;;;47.45;6.80;;;;;;;23.34;51.56;100797.25;1705661;83;21155;-42
2022/08/23 05:41:46;;;;;;;41.60;5.53;;;;;;;23.28;49.44;100798.53;1705947;84;20968;-42
2022/08/23 05:44:13;;;;;;;40.33;5.67;;;;;;;23.23;49.50;100806.72;1707765;82;21031;-43
2022/08/23 05:46:41;;;;;;;40.83;6.20;;;;;;;23.22;49.99;100807.66;1705841;84;21586;-43
2022/08/23 05:49:11;;;;;;;51.60;6.12;;;;;;;23.23;49.70;100800.57;1702466;84;20988;-43
2022/08/23 05:51:38;;;;;;;58.05;6.05;;;;;;;23.27;49.76;100802.58;1685384;84;21243;-42
2022/08/23 05:54:06;;;;;;;31.10;5.78;;;;;;;23.33;47.76;100805.66;1707244;82;20984;-43
2022/08/23 05:56:38;;;;;;;51.73;5.62;;;;;;;23.39;47.31;100805.73;1705824;83;21656;-42
2022/08/23 05:59:07;;;;;;;38.28;5.85;;;;;;;23.45;47.94;100800.03;1705539;84;20937;-42
2022/08/23 06:01:35;;;;;;;46.88;5.50;;;;;;;23.46;47.63;100804.36;1705936;84;20925;-43
2022/08/23 06:06:57;;;;;;;40.67;5.47;;;;;;;23.68;46.52;100805.55;1797590;79;23081;-43
2022/08/23 06:09:25;;;;;;;40.83;5.47;;;;;;;23.68;46.33;100808.19;1757245;81;20936;-42
2022/08/23 06:11:52;;;;;;;35.63;5.42;;;;;;;23.68;45.88;100806.87;1768950;80;22286;-43
2022/08/23 06:14:20;;;;;;;42.27;5.50;;;;;;;23.71;45.82;100807.11;1783402;80;21468;-43
2022/08/23 06:16:48;;;;;;;50.58;5.42;;;;;;;23.77;45.29;100807.55;1765181;80;20936;-43
2022/08/23 06:19:17;;;;;;;45.65;4.70;;;;;;;23.81;45.61;100810.34;1723031;81;20994;-43
2022/08/23 06:21:48;;;;;;;57.15;6.30;;;;;;;23.88;45.66;100815.23;1720005;83;20939;-43
2022/08/23 06:24:18;;;;;;;40.95;4.78;;;;;;;24.03;45.99;100806.23;1725450;83;21321;-43
2022/08/23 06:26:46;;;;;;;37.48;6.00;;;;;;;24.20;43.34;100782.57;1729422;83;20943;-43
2022/08/23 06:29:16;;;;;;;40.45;4.80;;;;;;;24.37;44.84;100809.13;1704472;83;21044;-43
2022/08/23 06:31:47;;;;;;;36.63;4.55;;;;;;;24.51;44.56;100813.92;1709364;84;20951;-43
2022/08/23 06:34:32;;;;;;;38.65;4.70;;;;;;;24.63;46.75;100818.81;1708542;83;21043;-43
2022/08/23 06:37:08;;;;;;;33.63;4.87;;;;;;;24.75;44.06;100829.02;1708735;84;21094;-42
2022/08/23 06:39:56;;;;;;;23.38;4.33;;;;;;;24.73;44.57;100822.95;1617003;88;21023;-44
2022/08/23 06:42:31;;;;;;;43.68;4.83;;;;;;;24.67;44.05;100826.42;1671723;85;21679;-42
2022/08/23 06:45:00;;;;;;;30.45;5.22;;;;;;;24.64;42.36;100824.00;1650350;83;21019;-43
2022/08/23 06:47:30;;;;;;;33.73;4.65;;;;;;;24.66;43.38;100831.35;1695172;83;21171;-43
2022/08/23 06:49:58;;;;;;;35.28;4.70;;;;;;;24.78;44.92;100835.41;1689915;83;21286;-43
2022/08/23 06:52:47;;;;;;;28.70;4.35;;;;;;;24.91;43.09;100825.62;1716938;83;20988;-44
2022/08/23 06:55:16;;;;;;;44.55;4.87;;;;;;;25.06;43.23;100827.61;1657900;86;21047;-43
2022/08/23 06:57:45;;;;;;;34.60;3.87;;;;;;;25.19;41.81;100830.19;1669799;85;20968;-42
2022/08/23 07:00:23;;;;;;;32.30;4.30;;;;;;;25.30;41.88;100835.16;1644740;87;21063;-44
2022/08/23 07:02:58;;;;;;;35.47;5.17;;;;;;;25.41;43.67;100844.48;1674830;84;22263;-42
2022/08/23 07:05:30;;;;;;;28.50;4.42;;;;;;;25.52;42.49;100848.50;1651331;84;21126;-44
2022/08/23 07:07:59;;;;;;;37.30;4.25;;;;;;;25.60;42.63;100843.09;1610439;88;21024;-43
2022/08/23 07:10:27;;;;;;;25.60;4.37;;;;;;;25.71;43.84;100848.89;1639511;87;21576;-43
2022/08/23 07:12:54;;;;;;;37.08;5.05;;;;;;;25.85;44.01;100853.14;1639614;87;21603;-43
2022/08/23 07:15:22;;;;;;;24.75;3.83;;;;;;;25.96;41.50;100860.63;1676134;85;21235;-44
2022/08/23 07:17:49;;;;;;;28.10;5.10;;;;;;;26.05;41.34;100864.37;1680093;85;20936;-43
2022/08/23 07:20:17;;;;;;;26.23;3.95;;;;;;;26.09;40.47;100855.20;1651551;86;20975;-43
2022/08/23 07:22:45;;;;;;;34.23;4.55;;;;;;;26.17;40.79;100865.75;1682766;84;21482;-44
2022/08/23 07:25:12;;;;;;;25.02;4.20;;;;;;;26.24;41.42;100860.31;1682677;84;20952;-43
2022/08/23 07:27:41;;;;;;;28.32;4.47;;;;;;;26.36;41.73;100861.98;1661727;85;21245;-44
2022/08/23 07:30:10;;;;;;;24.47;4.00;;;;;;;26.52;41.46;100871.39;1625070;86;21050;-44
2022/08/23 07:32:39;;;;;;;28.47;4.20;;;;;;;26.61;39.38;100873.80;1607786;88;21014;-43
2022/08/23 07:35:08;;;;;;;24.47;4.03;;;;;;;26.74;40.52;100877.63;1629348;86;21038;-44
2022/08/23 07:37:37;;;;;;;27.48;4.15;;;;;;;26.88;40.23;100860.11;1648388;85;21510;-44
2022/08/23 07:40:07;;;;;;;25.15;4.08;;;;;;;27.02;40.71;100874.09;1637046;86;22211;-44
2022/08/23 07:42:34;;;;;;;23.05;4.10;;;;;;;27.14;40.64;100862.94;1572243;88;21033;-44
2022/08/23 07:45:02;;;;;;;26.50;3.80;;;;;;;27.25;40.88;100871.71;1621852;87;21568;-43
2022/08/23 07:47:33;;;;;;;29.32;3.75;;;;;;;27.44;40.99;100874.16;1628322;87;20945;-43
2022/08/23 07:50:00;;;;;;;21.30;2.83;;;;;;;27.69;42.09;100870.80;1643271;86;21051;-43
2022/08/23 07:52:29;;;;;;;30.27;4.28;;;;;;;27.86;38.65;100877.80;1643388;87;21165;-44
2022/08/23 07:54:57;;;;;;;25.48;3.37;;;;;;;28.00;39.19;100878.80;1643355;87;20980;-44
2022/08/23 07:57:44;;;;;;;13.70;3.00;;;;;;;28.10;38.26;100875.69;1642867;87;21024;-44
2022/08/23 08:00:14;;;;;;;18.37;2.65;;;;;;;28.24;38.35;100876.36;1628549;87;21067;-43
2022/08/23 08:02:44;;;;;;;16.35;2.87;;;;;;;28.37;37.65;100874.28;1643300;87;20985;-43
2022/08/23 08:05:12;;;;;;;30.82;2.70;;;;;;;28.54;38.20;100875.45;1644050;84;21434;-44
2022/08/23 08:07:39;;;;;;;28.85;2.92;;;;;;;28.77;39.03;100879.22;1694527;83;21105;-43
2022/08/23 08:10:07;;;;;;;17.95;3.00;;;;;;;28.94;37.99;100864.44;1694501;84;20989;-44
2022/08/23 08:12:34;;;;;;;16.55;2.90;;;;;;;29.09;36.97;100871.52;1694638;84;20950;-44
2022/08/23 08:15:05;;;;;;;29.23;2.87;;;;;;;29.15;35.78;100882.09;1694733;84;20997;-43
2022/08/23 08:17:34;;;;;;;22.87;3.05;;;;;;;29.25;35.18;100870.96;1677957;84;21081;-43
2022/08/23 08:20:15;;;;;;;37.73;3.58;;;;;;;29.32;34.29;100871.24;1695482;83;21001;-44
2022/08/23 08:22:54;;;;;;;12.40;2.87;;;;;;;29.33;33.50;100876.07;1680141;84;20962;-43
2022/08/23 08:25:31;;;;;;;21.50;3.30;;;;;;;29.48;34.41;100868.50;1694815;84;20977;-43
2022/08/23 08:27:57;;;;;;;21.85;3.00;;;;;;;29.61;35.61;100876.20;1694455;84;21002;-44
2022/08/23 08:30:24;;;;;;;39.25;2.95;;;;;;;29.75;35.76;100873.58;1694518;84;21064;-44
2022/08/23 08:32:51;;;;;;;20.68;3.15;;;;;;;29.90;36.04;100875.28;1694665;84;21487;-43
2022/08/23 08:35:19;;;;;;;18.02;3.20;;;;;;;30.07;36.12;100873.73;1694523;84;20953;-44
2022/08/23 08:37:46;;;;;;;19.80;2.83;;;;;;;30.23;35.66;100875.78;1694514;84;21046;-43
2022/08/23 08:40:13;;;;;;;22.30;3.30;;;;;;;30.33;35.70;100881.90;1694480;83;21029;-44
2022/08/23 08:43:05;;;;;;;14.35;3.27;;;;;;;30.45;36.09;100873.70;1678456;83;21101;-43
2022/08/23 08:46:08;;;;;;;18.15;3.37;;;;;;;30.57;35.58;100871.16;1694247;84;21028;-44
2022/08/23 08:48:43;;;;;;;13.38;3.12;;;;;;;30.73;35.03;100875.05;1694447;84;21598;-43
2022/08/23 08:51:28;;;;;;;27.82;2.75;;;;;;;30.74;35.06;100871.37;1694641;84;21009;-43
2022/08/23 08:53:55;;;;;;;15.68;2.62;;;;;;;30.84;35.78;100884.16;1694884;84;21550;-43
2022/08/23 08:56:31;;;;;;;26.95;3.17;;;;;;;31.02;34.94;100881.49;1694529;84;21169;-44
2022/08/23 08:59:03;;;;;;;13.22;2.98;;;;;;;31.09;33.47;100873.71;1692879;84;21017;-44
2022/08/23 09:01:34;;;;;;;19.37;2.92;;;;;;;31.14;34.12;100875.94;1694792;84;21580;-44
2022/08/23 09:04:02;;;;;;;28.12;2.70;;;;;;;31.18;33.51;100875.45;1694470;84;20993;-43
2022/08/23 09:06:57;;;;;;;21.75;2.58;;;;;;;31.24;33.16;100876.71;1689661;84;21022;-43
2022/08/23 09:10:01;;;;;;;;;;;;;;;31.36;34.45;100874.63;1684053;84;22139;-43
2022/08/23 09:13:07;;;;;;;20.30;2.70;;;;;;;31.53;32.28;100869.76;1673951;85;20096;-44
2022/08/23 09:16:10;;;;;;;18.52;2.65;;;;;;;31.62;33.13;100875.16;1672969;85;20945;-44
2022/08/23 09:18:38;;;;;;;17.15;3.30;;;;;;;31.83;34.40;100882.86;1728930;83;20998;-43
2022/08/23 09:21:06;;;;;;;12.78;2.40;;;;;;;31.78;33.03;100886.00;1728825;83;21015;-43
2022/08/23 09:23:39;;;;;;;20.88;3.33;;;;;;;31.84;32.83;100886.36;1728788;82;22192;-44
2022/08/23 09:26:30;;;;;;;11.22;2.45;;;;;;;31.89;31.44;100882.70;1728860;83;21040;-43
2022/08/23 09:29:24;;;;;;;14.50;2.85;;;;;;;31.96;32.71;100886.45;1735061;82;20971;-43
2022/08/23 09:31:57;;;;;;;29.18;3.45;;;;;;;32.03;31.35;100886.14;1678332;82;21001;-43
2022/08/23 09:34:37;;;;;;;23.87;2.90;;;;;;;32.04;31.40;100883.80;1710829;83;21487;-44
2022/08/23 09:37:22;;;;;;;19.95;2.90;;;;;;;32.18;32.39;100901.59;1679959;85;21365;-44
2022/08/23 09:39:59;;;;;;;19.57;2.85;;;;;;;32.30;32.12;100892.77;1680063;85;21466;-44
2022/08/23 09:42:37;;;;;;;22.00;3.00;;;;;;;32.45;32.40;100888.52;1663993;85;20936;-44
2022/08/23 09:45:26;;;;;;;23.18;3.30;;;;;;;32.65;31.94;100894.43;1679951;85;21494;-44
2022/08/23 09:47:53;;;;;;;16.75;2.95;;;;;;;32.80;30.88;100892.47;1714701;83;20956;-43
2022/08/23 09:50:37;;;;;;;15.60;3.15;;;;;;;32.85;31.62;100895.48;1714636;83;21249;-43
2022/08/23 09:53:09;;;;;;;17.15;2.77;;;;;;;32.83;30.77;100891.61;1714578;82;20893;-43
2022/08/23 09:55:44;;;;;;;20.25;2.90;;;;;;;32.81;31.05;100888.78;1714595;82;20937;-44
2022/08/23 09:58:32;;;;;;;18.55;2.77;;;;;;;32.86;30.02;100880.27;1714719;83;20945;-43
2022/08/23 10:01:22;;;;;;;19.40;3.05;;;;;;;32.84;29.70;100891.13;1672377;85;21509;-44
2022/08/23 10:04:11;;;;;;;14.70;2.80;;;;;;;32.76;31.04;100888.45;1713127;82;21162;-43
2022/08/23 10:06:40;;;;;;;25.60;3.05;;;;;;;32.80;30.62;100892.47;1710936;83;21036;-44
2022/08/23 10:09:07;;;;;;;18.35;2.85;;;;;;;32.80;31.93;100887.93;1660122;85;20908;-43
2022/08/23 10:11:44;;;;;;;12.90;2.87;;;;;;;32.81;32.35;100887.44;1722342;82;20999;-43
2022/08/23 10:14:14;;;;;;;30.40;3.55;;;;;;;32.92;31.88;100885.80;1687471;85;20955;-43
2022/08/23 10:17:08;;;;;;;8.25;2.40;;;;;;;32.96;31.62;100880.97;1687712;85;21214;-44
2022/08/23 10:20:05;;;;;;;18.35;2.70;;;;;;;33.02;30.84;100887.52;1722222;83;20944;-45
2022/08/23 10:22:45;;;;;;;16.52;2.20;;;;;;;33.10;31.97;100887.02;1686793;85;20995;-44
2022/08/23 10:25:34;;;;;;;23.12;2.90;;;;;;;33.12;31.08;100888.69;1721303;83;20913;-44
2022/08/23 10:31:05;;;;;;;12.90;2.80;;;;;;;32.98;31.20;100880.29;1722188;83;21172;-44
2022/08/23 10:34:20;;;;;;;11.70;2.62;;;;;;;33.00;31.77;100874.78;1687215;85;20995;-44
2022/08/23 10:37:17;;;;;;;24.60;3.25;;;;;;;33.03;32.27;100881.14;1687564;85;21549;-43
2022/08/23 10:39:48;;;;;;;14.75;2.60;;;;;;;33.11;31.10;100882.48;1685295;85;20884;-44
2022/08/23 10:42:37;;;;;;;16.80;2.98;;;;;;;33.05;30.95;100888.52;1687559;85;20967;-44
2022/08/23 10:45:31;;;;;;;19.27;3.10;;;;;;;33.05;30.75;100886.66;1687283;85;21383;-44
2022/08/23 10:48:10;;;;;;;22.62;2.67;;;;;;;32.99;30.96;100872.59;1687254;85;21000;-44
2022/08/23 10:50:47;;;;;;;13.13;2.70;;;;;;;33.00;31.62;100872.09;1687375;85;20931;-44
2022/08/23 10:53:16;;;;;;;26.80;3.67;;;;;;;33.05;31.67;100876.45;1679755;85;21560;-44
2022/08/23 10:56:04;;;;;;;16.62;3.02;;;;;;;33.18;30.69;100878.63;1679910;85;20899;-44
2022/08/23 10:58:54;;;;;;;20.05;2.85;;;;;;;33.29;30.87;100871.58;1679955;85;21087;-44
2022/08/23 11:01:35;;;;;;;27.58;2.72;;;;;;;33.43;31.57;100874.63;1679810;85;20889;-44
2022/08/23 11:04:10;;;;;;;20.25;2.80;;;;;;;33.58;30.94;100874.78;1679756;85;21521;-44
2022/08/23 11:06:53;;;;;;;15.08;3.02;;;;;;;33.65;31.08;100873.08;1646839;85;20999;-44
2022/08/23 11:09:27;;;;;;;16.77;3.00;;;;;;;33.68;30.95;100874.93;1672625;85;21511;-44
2022/08/23 11:12:14;;;;;;;15.53;2.92;;;;;;;33.66;31.41;100881.45;1672637;85;21183;-44
2022/08/23 11:14:58;;;;;;;12.28;2.80;;;;;;;33.58;32.68;100870.75;1672573;85;20959;-44
2022/08/23 11:17:53;;;;;;;15.88;2.87;;;;;;;33.58;31.85;100872.09;1645228;84;20953;-44
2022/08/23 11:20:52;;;;;;;12.37;2.85;;;;;;;33.64;31.52;100868.72;1672592;85;21015;-44
2022/08/23 11:23:57;;;;;;;12.78;2.65;;;;;;;33.68;30.95;100863.34;1672780;84;21494;-44
2022/08/23 11:26:35;;;;;;;13.50;2.70;;;;;;;33.85;31.23;100871.36;1672662;85;21260;-44
2022/08/23 11:29:09;;;;;;;11.80;2.47;;;;;;;34.01;31.75;100870.01;1672460;85;21136;-44
2022/08/23 11:31:49;;;;;;;11.03;2.95;;;;;;;34.14;30.96;100868.61;1672350;85;20959;-44
2022/08/23 11:34:27;;;;;;;19.35;3.20;;;;;;;34.25;29.96;100870.92;1672311;85;21455;-44
2022/08/23 11:37:23;;;;;;;10.53;3.00;;;;;;;34.29;31.68;100860.65;1672310;85;20988;-44
2022/08/23 11:40:05;;;;;;;15.10;3.10;;;;;;;34.26;29.28;100859.17;1672691;85;21830;-44
2022/08/23 11:42:50;;;;;;;15.35;3.10;;;;;;;34.18;29.91;100857.84;1672614;85;21094;-44
2022/08/23 11:45:32;;;;;;;10.72;2.62;;;;;;;34.30;31.60;100863.17;1672573;85;20955;-44
2022/08/23 11:48:22;;;;;;;14.13;3.22;;;;;;;34.50;30.97;100857.39;1671615;85;20941;-44
2022/08/23 11:51:23;;;;;;;12.95;3.10;;;;;;;34.47;27.29;100861.23;1670723;85;21646;-44
2022/08/23 11:54:30;;;;;;;12.58;2.95;;;;;;;34.24;28.06;100857.16;1672323;85;21826;-43
2022/08/23 11:57:21;;;;;;;13.53;2.80;;;;;;;34.22;28.31;100853.79;1672481;85;20987;-44
2022/08/23 12:00:10;;;;;;;12.18;2.33;;;;;;;34.19;28.64;100852.80;1672457;85;20903;-44
2022/08/23 12:02:51;;;;;;;15.28;2.50;;;;;;;34.23;29.08;100854.13;1672355;85;20983;-44